Pagina principală
METAR-TAF:

METAR-TAF

Aeroporturi :

Okmulgee, Oklahoma, Statele Unite ale Americii

Latitudine: 35-40-05N, longitudine: 095-56-55W, elevație: 220 m

Observații meteo curente

Raportul a fost făcut în urmă cu 41 de minute, la 22:35 UTC
Vânt 8 kt de la Sud/Sud-vest
Temperatură 35°C
Umiditate 47%
Presiune 1014 hPa
Vizibilitate: 16.1 km
Nori împrăștiați la o înălțime de 6000 picior
Nori fragmentați la o înălțime de 7000 picior

METAR: KOKM 222235Z AUTO 20008KT 10SM SCT060 BKN070 35/22 A2993 RMK AO2 T03510215

Ora: 18:16 (23:16 UTC)


TAF: lipsă

Observații și prognoze meteo pentru peste 4.000 de aeroporturi (rapoarte METAR și TAF).

Stațiile disponibile sunt reprezentate pe hartă prin puncte galbene și roșii.

Țineți indicatorul mouse-ului pe punctul dorit pentru a vedea denumirea stației.

Apoi, faceți clic pentru a vedea observațiile și prognozele meteorologice.

Pentru a schimba harta: Pentru mărire, faceți clic pe butoanele verzi cu cruce neagră; pentru micșorare, pe butonul verde cu o liniuță; pentru hărți învecinate, pe săgețile verzi.


METAR-TAF: